sensor_id;sensor_type;location;lat;lon;timestamp;P1;durP1;ratioP1;P2;durP2;ratioP2
31043;SDS011;17710;52.520;13.352;2023-06-14T00:00:30;3.45;;;2.00;;
31043;SDS011;17710;52.520;13.352;2023-06-14T00:02:56;4.03;;;2.00;;
31043;SDS011;17710;52.520;13.352;2023-06-14T00:05:23;5.78;;;1.80;;
31043;SDS011;17710;52.520;13.352;2023-06-14T00:07:49;2.28;;;1.60;;
31043;SDS011;17710;52.520;13.352;2023-06-14T00:10:18;2.05;;;1.70;;
31043;SDS011;17710;52.520;13.352;2023-06-14T00:12:46;2.20;;;1.80;;
31043;SDS011;17710;52.520;13.352;2023-06-14T00:15:13;7.18;;;1.83;;
31043;SDS011;17710;52.520;13.352;2023-06-14T00:17:40;3.97;;;1.63;;
31043;SDS011;17710;52.520;13.352;2023-06-14T00:20:06;3.30;;;1.90;;
31043;SDS011;17710;52.520;13.352;2023-06-14T00:22:34;3.05;;;1.77;;
31043;SDS011;17710;52.520;13.352;2023-06-14T00:25:01;3.28;;;2.25;;
31043;SDS011;17710;52.520;13.352;2023-06-14T00:27:28;5.22;;;2.03;;
31043;SDS011;17710;52.520;13.352;2023-06-14T00:29:56;6.05;;;1.83;;
31043;SDS011;17710;52.520;13.352;2023-06-14T00:32:23;4.20;;;1.77;;
31043;SDS011;17710;52.520;13.352;2023-06-14T00:34:50;2.60;;;1.73;;
31043;SDS011;17710;52.520;13.352;2023-06-14T00:37:17;4.25;;;1.83;;
31043;SDS011;17710;52.520;13.352;2023-06-14T00:39:43;3.75;;;2.20;;
31043;SDS011;17710;52.520;13.352;2023-06-14T00:42:10;3.80;;;2.00;;
31043;SDS011;17710;52.520;13.352;2023-06-14T00:44:36;2.65;;;2.22;;
31043;SDS011;17710;52.520;13.352;2023-06-14T00:47:04;4.88;;;2.33;;
31043;SDS011;17710;52.520;13.352;2023-06-14T00:49:31;6.80;;;2.60;;
31043;SDS011;17710;52.520;13.352;2023-06-14T00:51:58;4.25;;;2.20;;
31043;SDS011;17710;52.520;13.352;2023-06-14T00:54:25;2.88;;;2.30;;
31043;SDS011;17710;52.520;13.352;2023-06-14T00:56:51;5.78;;;2.38;;
31043;SDS011;17710;52.520;13.352;2023-06-14T00:59:18;4.03;;;2.60;;
31043;SDS011;17710;52.520;13.352;2023-06-14T01:01:44;9.95;;;2.67;;
31043;SDS011;17710;52.520;13.352;2023-06-14T01:04:12;4.88;;;2.45;;
31043;SDS011;17710;52.520;13.352;2023-06-14T01:06:40;2.33;;;1.90;;
31043;SDS011;17710;52.520;13.352;2023-06-14T01:09:21;8.25;;;2.53;;
31043;SDS011;17710;52.520;13.352;2023-06-14T01:11:54;3.92;;;2.53;;
31043;SDS011;17710;52.520;13.352;2023-06-14T01:14:25;4.18;;;2.35;;
31043;SDS011;17710;52.520;13.352;2023-06-14T01:16:54;5.65;;;2.38;;
31043;SDS011;17710;52.520;13.352;2023-06-14T01:19:23;6.10;;;2.88;;
31043;SDS011;17710;52.520;13.352;2023-06-14T01:21:51;3.47;;;2.75;;
31043;SDS011;17710;52.520;13.352;2023-06-14T01:24:19;6.28;;;3.42;;
31043;SDS011;17710;52.520;13.352;2023-06-14T01:26:48;8.40;;;2.90;;
31043;SDS011;17710;52.520;13.352;2023-06-14T01:29:20;11.73;;;3.20;;
31043;SDS011;17710;52.520;13.352;2023-06-14T01:31:48;6.22;;;2.55;;
31043;SDS011;17710;52.520;13.352;2023-06-14T01:34:15;8.30;;;2.85;;
31043;SDS011;17710;52.520;13.352;2023-06-14T01:36:43;4.72;;;3.35;;
31043;SDS011;17710;52.520;13.352;2023-06-14T01:39:10;7.05;;;2.95;;
31043;SDS011;17710;52.520;13.352;2023-06-14T01:41:41;3.65;;;2.95;;
31043;SDS011;17710;52.520;13.352;2023-06-14T01:44:11;6.28;;;3.50;;
31043;SDS011;17710;52.520;13.352;2023-06-14T01:46:40;3.58;;;2.53;;
31043;SDS011;17710;52.520;13.352;2023-06-14T01:49:08;4.85;;;2.85;;
31043;SDS011;17710;52.520;13.352;2023-06-14T01:51:37;5.00;;;2.90;;
31043;SDS011;17710;52.520;13.352;2023-06-14T01:54:03;4.95;;;2.80;;
31043;SDS011;17710;52.520;13.352;2023-06-14T01:56:29;4.35;;;2.85;;
31043;SDS011;17710;52.520;13.352;2023-06-14T01:58:58;3.10;;;2.80;;
31043;SDS011;17710;52.520;13.352;2023-06-14T02:01:25;3.72;;;3.17;;
31043;SDS011;17710;52.520;13.352;2023-06-14T02:03:51;3.58;;;3.28;;
31043;SDS011;17710;52.520;13.352;2023-06-14T02:06:18;3.75;;;3.03;;
31043;SDS011;17710;52.520;13.352;2023-06-14T02:08:45;7.35;;;3.20;;
31043;SDS011;17710;52.520;13.352;2023-06-14T02:11:11;6.97;;;3.60;;
31043;SDS011;17710;52.520;13.352;2023-06-14T02:13:37;3.17;;;2.85;;
31043;SDS011;17710;52.520;13.352;2023-06-14T02:16:05;8.10;;;3.38;;
31043;SDS011;17710;52.520;13.352;2023-06-14T02:18:32;5.30;;;2.63;;
31043;SDS011;17710;52.520;13.352;2023-06-14T02:20:58;6.57;;;3.55;;
31043;SDS011;17710;52.520;13.352;2023-06-14T02:23:25;6.35;;;3.10;;
31043;SDS011;17710;52.520;13.352;2023-06-14T02:25:51;8.90;;;3.17;;
31043;SDS011;17710;52.520;13.352;2023-06-14T02:28:18;4.57;;;3.38;;
31043;SDS011;17710;52.520;13.352;2023-06-14T02:30:44;3.85;;;3.13;;
31043;SDS011;17710;52.520;13.352;2023-06-14T02:33:12;8.32;;;3.60;;
31043;SDS011;17710;52.520;13.352;2023-06-14T02:35:38;8.05;;;3.67;;
31043;SDS011;17710;52.520;13.352;2023-06-14T02:38:05;6.72;;;3.40;;
31043;SDS011;17710;52.520;13.352;2023-06-14T02:40:31;6.28;;;3.25;;
31043;SDS011;17710;52.520;13.352;2023-06-14T02:42:58;4.68;;;3.55;;
31043;SDS011;17710;52.520;13.352;2023-06-14T02:45:24;10.00;;;3.88;;
31043;SDS011;17710;52.520;13.352;2023-06-14T02:47:51;7.10;;;3.38;;
31043;SDS011;17710;52.520;13.352;2023-06-14T02:50:19;8.82;;;3.75;;
31043;SDS011;17710;52.520;13.352;2023-06-14T02:52:46;6.10;;;3.70;;
31043;SDS011;17710;52.520;13.352;2023-06-14T02:55:12;5.00;;;3.70;;
31043;SDS011;17710;52.520;13.352;2023-06-14T02:57:39;6.90;;;3.83;;
31043;SDS011;17710;52.520;13.352;2023-06-14T03:00:06;4.35;;;3.15;;
31043;SDS011;17710;52.520;13.352;2023-06-14T03:02:34;4.63;;;3.50;;
31043;SDS011;17710;52.520;13.352;2023-06-14T03:05:01;11.50;;;3.42;;
31043;SDS011;17710;52.520;13.352;2023-06-14T03:07:29;12.50;;;4.20;;
31043;SDS011;17710;52.520;13.352;2023-06-14T03:09:56;7.70;;;3.35;;
31043;SDS011;17710;52.520;13.352;2023-06-14T03:12:22;5.03;;;3.95;;
31043;SDS011;17710;52.520;13.352;2023-06-14T03:14:49;5.97;;;3.53;;
31043;SDS011;17710;52.520;13.352;2023-06-14T03:17:16;7.68;;;3.45;;
31043;SDS011;17710;52.520;13.352;2023-06-14T03:19:44;7.68;;;3.53;;
31043;SDS011;17710;52.520;13.352;2023-06-14T03:22:10;8.50;;;4.18;;
31043;SDS011;17710;52.520;13.352;2023-06-14T03:24:39;6.25;;;3.72;;
31043;SDS011;17710;52.520;13.352;2023-06-14T03:27:06;6.68;;;3.83;;
31043;SDS011;17710;52.520;13.352;2023-06-14T03:29:34;5.30;;;3.90;;
31043;SDS011;17710;52.520;13.352;2023-06-14T03:32:01;7.00;;;3.95;;
31043;SDS011;17710;52.520;13.352;2023-06-14T03:34:29;7.30;;;4.03;;
31043;SDS011;17710;52.520;13.352;2023-06-14T03:36:55;4.93;;;3.60;;
31043;SDS011;17710;52.520;13.352;2023-06-14T03:39:22;8.25;;;3.60;;
31043;SDS011;17710;52.520;13.352;2023-06-14T03:41:50;6.43;;;3.75;;
31043;SDS011;17710;52.520;13.352;2023-06-14T03:44:16;6.22;;;3.80;;
31043;SDS011;17710;52.520;13.352;2023-06-14T03:46:43;8.02;;;3.90;;
31043;SDS011;17710;52.520;13.352;2023-06-14T03:49:10;5.45;;;3.80;;
31043;SDS011;17710;52.520;13.352;2023-06-14T03:51:37;11.77;;;3.75;;
31043;SDS011;17710;52.520;13.352;2023-06-14T03:54:04;10.80;;;4.40;;
31043;SDS011;17710;52.520;13.352;2023-06-14T03:56:31;7.03;;;4.30;;
31043;SDS011;17710;52.520;13.352;2023-06-14T03:58:58;6.40;;;4.40;;
31043;SDS011;17710;52.520;13.352;2023-06-14T04:01:25;9.57;;;4.30;;
31043;SDS011;17710;52.520;13.352;2023-06-14T04:03:54;6.20;;;4.22;;
31043;SDS011;17710;52.520;13.352;2023-06-14T04:06:21;8.40;;;4.57;;
31043;SDS011;17710;52.520;13.352;2023-06-14T04:08:50;7.05;;;4.22;;
31043;SDS011;17710;52.520;13.352;2023-06-14T04:11:16;11.50;;;4.53;;
31043;SDS011;17710;52.520;13.352;2023-06-14T04:13:43;6.70;;;4.30;;
31043;SDS011;17710;52.520;13.352;2023-06-14T04:16:11;5.25;;;4.00;;
31043;SDS011;17710;52.520;13.352;2023-06-14T04:18:37;5.93;;;3.88;;
31043;SDS011;17710;52.520;13.352;2023-06-14T04:21:04;7.57;;;4.20;;
31043;SDS011;17710;52.520;13.352;2023-06-14T04:23:31;6.47;;;4.20;;
31043;SDS011;17710;52.520;13.352;2023-06-14T04:25:57;7.90;;;4.18;;
31043;SDS011;17710;52.520;13.352;2023-06-14T04:28:27;9.50;;;4.50;;
31043;SDS011;17710;52.520;13.352;2023-06-14T04:30:54;8.13;;;4.97;;
31043;SDS011;17710;52.520;13.352;2023-06-14T04:33:21;11.27;;;4.55;;
31043;SDS011;17710;52.520;13.352;2023-06-14T04:35:50;6.78;;;5.18;;
31043;SDS011;17710;52.520;13.352;2023-06-14T04:38:18;8.63;;;5.05;;
31043;SDS011;17710;52.520;13.352;2023-06-14T04:40:48;11.10;;;4.90;;
31043;SDS011;17710;52.520;13.352;2023-06-14T04:43:18;6.28;;;4.75;;
31043;SDS011;17710;52.520;13.352;2023-06-14T04:45:52;9.07;;;4.50;;
31043;SDS011;17710;52.520;13.352;2023-06-14T04:48:19;11.43;;;4.90;;
31043;SDS011;17710;52.520;13.352;2023-06-14T04:50:47;6.45;;;5.03;;
31043;SDS011;17710;52.520;13.352;2023-06-14T04:53:18;7.85;;;4.50;;
31043;SDS011;17710;52.520;13.352;2023-06-14T04:55:47;11.23;;;5.65;;
31043;SDS011;17710;52.520;13.352;2023-06-14T04:58:15;9.57;;;5.38;;
31043;SDS011;17710;52.520;13.352;2023-06-14T05:00:41;10.77;;;5.65;;
31043;SDS011;17710;52.520;13.352;2023-06-14T05:03:08;7.22;;;5.10;;
31043;SDS011;17710;52.520;13.352;2023-06-14T05:05:38;26.90;;;5.63;;
31043;SDS011;17710;52.520;13.352;2023-06-14T05:08:06;25.52;;;6.25;;
31043;SDS011;17710;52.520;13.352;2023-06-14T05:10:32;9.65;;;4.13;;
31043;SDS011;17710;52.520;13.352;2023-06-14T05:13:00;24.45;;;6.03;;
31043;SDS011;17710;52.520;13.352;2023-06-14T05:15:26;12.50;;;5.20;;
31043;SDS011;17710;52.520;13.352;2023-06-14T05:17:54;19.10;;;5.40;;
31043;SDS011;17710;52.520;13.352;2023-06-14T05:20:20;5.97;;;4.45;;
31043;SDS011;17710;52.520;13.352;2023-06-14T05:22:48;8.23;;;5.25;;
31043;SDS011;17710;52.520;13.352;2023-06-14T05:25:16;8.50;;;5.30;;
31043;SDS011;17710;52.520;13.352;2023-06-14T05:27:42;10.77;;;5.70;;
31043;SDS011;17710;52.520;13.352;2023-06-14T05:30:09;9.40;;;5.35;;
31043;SDS011;17710;52.520;13.352;2023-06-14T05:32:37;27.23;;;5.63;;
31043;SDS011;17710;52.520;13.352;2023-06-14T05:35:03;9.32;;;4.88;;
31043;SDS011;17710;52.520;13.352;2023-06-14T05:37:30;8.20;;;4.78;;
31043;SDS011;17710;52.520;13.352;2023-06-14T05:39:57;12.98;;;5.25;;
31043;SDS011;17710;52.520;13.352;2023-06-14T05:42:25;15.95;;;6.07;;
31043;SDS011;17710;52.520;13.352;2023-06-14T05:44:52;10.25;;;5.35;;
31043;SDS011;17710;52.520;13.352;2023-06-14T05:47:18;6.80;;;4.88;;
31043;SDS011;17710;52.520;13.352;2023-06-14T05:49:44;19.13;;;5.05;;
31043;SDS011;17710;52.520;13.352;2023-06-14T05:52:11;7.53;;;5.15;;
31043;SDS011;17710;52.520;13.352;2023-06-14T05:54:38;8.93;;;5.30;;
31043;SDS011;17710;52.520;13.352;2023-06-14T05:57:05;16.15;;;5.30;;
31043;SDS011;17710;52.520;13.352;2023-06-14T05:59:33;9.32;;;5.65;;
31043;SDS011;17710;52.520;13.352;2023-06-14T06:02:00;13.10;;;5.50;;
31043;SDS011;17710;52.520;13.352;2023-06-14T06:04:26;8.52;;;5.57;;
31043;SDS011;17710;52.520;13.352;2023-06-14T06:06:53;6.93;;;5.38;;
31043;SDS011;17710;52.520;13.352;2023-06-14T06:09:19;10.05;;;5.45;;
31043;SDS011;17710;52.520;13.352;2023-06-14T06:11:46;8.98;;;5.50;;
31043;SDS011;17710;52.520;13.352;2023-06-14T06:14:12;12.20;;;5.82;;
31043;SDS011;17710;52.520;13.352;2023-06-14T06:16:40;11.15;;;5.68;;
31043;SDS011;17710;52.520;13.352;2023-06-14T06:19:07;11.82;;;5.07;;
31043;SDS011;17710;52.520;13.352;2023-06-14T06:21:34;7.93;;;5.30;;
31043;SDS011;17710;52.520;13.352;2023-06-14T06:24:00;10.20;;;5.50;;
31043;SDS011;17710;52.520;13.352;2023-06-14T06:26:33;7.30;;;4.70;;
31043;SDS011;17710;52.520;13.352;2023-06-14T06:28:59;8.05;;;4.90;;
31043;SDS011;17710;52.520;13.352;2023-06-14T06:31:26;13.88;;;5.65;;
31043;SDS011;17710;52.520;13.352;2023-06-14T06:33:54;11.68;;;5.00;;
31043;SDS011;17710;52.520;13.352;2023-06-14T06:36:20;11.77;;;5.10;;
31043;SDS011;17710;52.520;13.352;2023-06-14T06:38:47;9.23;;;5.28;;
31043;SDS011;17710;52.520;13.352;2023-06-14T06:41:14;14.23;;;4.85;;
31043;SDS011;17710;52.520;13.352;2023-06-14T06:43:41;13.57;;;5.22;;
31043;SDS011;17710;52.520;13.352;2023-06-14T06:46:08;15.75;;;5.93;;
31043;SDS011;17710;52.520;13.352;2023-06-14T06:48:34;12.57;;;4.90;;
31043;SDS011;17710;52.520;13.352;2023-06-14T06:51:02;8.70;;;5.13;;
31043;SDS011;17710;52.520;13.352;2023-06-14T06:53:30;8.35;;;5.32;;
31043;SDS011;17710;52.520;13.352;2023-06-14T06:55:57;14.98;;;4.75;;
31043;SDS011;17710;52.520;13.352;2023-06-14T06:58:23;7.05;;;4.93;;
31043;SDS011;17710;52.520;13.352;2023-06-14T07:00:50;7.93;;;4.60;;
31043;SDS011;17710;52.520;13.352;2023-06-14T07:03:16;7.15;;;4.75;;
31043;SDS011;17710;52.520;13.352;2023-06-14T07:05:42;10.68;;;4.63;;
31043;SDS011;17710;52.520;13.352;2023-06-14T07:08:10;21.58;;;5.00;;
31043;SDS011;17710;52.520;13.352;2023-06-14T07:10:36;14.05;;;4.35;;
31043;SDS011;17710;52.520;13.352;2023-06-14T07:13:03;7.47;;;4.00;;
31043;SDS011;17710;52.520;13.352;2023-06-14T07:15:29;10.93;;;5.15;;
31043;SDS011;17710;52.520;13.352;2023-06-14T07:17:56;12.52;;;4.95;;
31043;SDS011;17710;52.520;13.352;2023-06-14T07:20:24;13.35;;;4.57;;
31043;SDS011;17710;52.520;13.352;2023-06-14T07:22:51;6.22;;;4.30;;
31043;SDS011;17710;52.520;13.352;2023-06-14T07:25:18;7.30;;;4.05;;
31043;SDS011;17710;52.520;13.352;2023-06-14T07:27:45;10.45;;;4.65;;
31043;SDS011;17710;52.520;13.352;2023-06-14T07:30:12;17.45;;;4.47;;
31043;SDS011;17710;52.520;13.352;2023-06-14T07:32:39;14.40;;;4.95;;
31043;SDS011;17710;52.520;13.352;2023-06-14T07:35:06;12.30;;;4.82;;
31043;SDS011;17710;52.520;13.352;2023-06-14T07:37:32;14.63;;;4.95;;
31043;SDS011;17710;52.520;13.352;2023-06-14T07:39:59;12.45;;;4.75;;
31043;SDS011;17710;52.520;13.352;2023-06-14T07:42:29;21.88;;;4.30;;
31043;SDS011;17710;52.520;13.352;2023-06-14T07:44:55;9.75;;;4.07;;
31043;SDS011;17710;52.520;13.352;2023-06-14T07:47:22;10.10;;;4.25;;
31043;SDS011;17710;52.520;13.352;2023-06-14T07:49:48;12.45;;;3.97;;
31043;SDS011;17710;52.520;13.352;2023-06-14T07:52:14;10.52;;;4.35;;
31043;SDS011;17710;52.520;13.352;2023-06-14T07:54:41;9.68;;;4.35;;
31043;SDS011;17710;52.520;13.352;2023-06-14T07:57:07;9.52;;;4.63;;
31043;SDS011;17710;52.520;13.352;2023-06-14T07:59:35;6.57;;;4.03;;
31043;SDS011;17710;52.520;13.352;2023-06-14T08:02:02;5.93;;;3.53;;
31043;SDS011;17710;52.520;13.352;2023-06-14T08:04:29;7.93;;;3.70;;
31043;SDS011;17710;52.520;13.352;2023-06-14T08:06:56;5.20;;;3.55;;
31043;SDS011;17710;52.520;13.352;2023-06-14T08:09:22;8.98;;;3.75;;
31043;SDS011;17710;52.520;13.352;2023-06-14T08:11:50;9.25;;;3.97;;
31043;SDS011;17710;52.520;13.352;2023-06-14T08:14:16;8.23;;;3.35;;
31043;SDS011;17710;52.520;13.352;2023-06-14T08:16:44;14.38;;;3.65;;
31043;SDS011;17710;52.520;13.352;2023-06-14T08:19:10;6.57;;;3.90;;
31043;SDS011;17710;52.520;13.352;2023-06-14T08:21:37;10.20;;;3.38;;
31043;SDS011;17710;52.520;13.352;2023-06-14T08:24:03;9.43;;;3.75;;
31043;SDS011;17710;52.520;13.352;2023-06-14T08:26:30;4.03;;;3.30;;
31043;SDS011;17710;52.520;13.352;2023-06-14T08:28:57;3.47;;;3.03;;
31043;SDS011;17710;52.520;13.352;2023-06-14T08:31:23;3.90;;;3.45;;
31043;SDS011;17710;52.520;13.352;2023-06-14T08:33:51;5.40;;;3.10;;
31043;SDS011;17710;52.520;13.352;2023-06-14T08:36:18;3.85;;;2.88;;
31043;SDS011;17710;52.520;13.352;2023-06-14T08:38:44;11.18;;;3.63;;
31043;SDS011;17710;52.520;13.352;2023-06-14T08:41:11;6.65;;;3.08;;
31043;SDS011;17710;52.520;13.352;2023-06-14T08:43:39;9.95;;;3.65;;
31043;SDS011;17710;52.520;13.352;2023-06-14T08:46:05;8.23;;;3.53;;
31043;SDS011;17710;52.520;13.352;2023-06-14T08:48:33;8.98;;;3.35;;
31043;SDS011;17710;52.520;13.352;2023-06-14T08:51:02;8.73;;;2.85;;
31043;SDS011;17710;52.520;13.352;2023-06-14T08:53:30;5.85;;;2.42;;
31043;SDS011;17710;52.520;13.352;2023-06-14T08:55:58;13.13;;;3.70;;
31043;SDS011;17710;52.520;13.352;2023-06-14T08:58:26;9.88;;;3.38;;
31043;SDS011;17710;52.520;13.352;2023-06-14T09:00:54;5.43;;;3.20;;
31043;SDS011;17710;52.520;13.352;2023-06-14T09:03:21;11.68;;;4.13;;
31043;SDS011;17710;52.520;13.352;2023-06-14T09:05:54;11.38;;;3.28;;
31043;SDS011;17710;52.520;13.352;2023-06-14T09:08:22;7.25;;;2.92;;
31043;SDS011;17710;52.520;13.352;2023-06-14T09:10:48;10.55;;;3.58;;
31043;SDS011;17710;52.520;13.352;2023-06-14T09:13:15;11.65;;;3.15;;
31043;SDS011;17710;52.520;13.352;2023-06-14T09:15:43;4.65;;;2.83;;
31043;SDS011;17710;52.520;13.352;2023-06-14T09:18:10;7.22;;;2.80;;
31043;SDS011;17710;52.520;13.352;2023-06-14T09:20:37;5.95;;;2.33;;
31043;SDS011;17710;52.520;13.352;2023-06-14T09:23:03;6.68;;;2.80;;
31043;SDS011;17710;52.520;13.352;2023-06-14T09:25:33;6.25;;;2.55;;
31043;SDS011;17710;52.520;13.352;2023-06-14T09:28:07;3.25;;;2.60;;
31043;SDS011;17710;52.520;13.352;2023-06-14T09:30:35;7.57;;;2.78;;
31043;SDS011;17710;52.520;13.352;2023-06-14T09:33:01;6.18;;;2.95;;
31043;SDS011;17710;52.520;13.352;2023-06-14T09:35:28;6.50;;;2.67;;
31043;SDS011;17710;52.520;13.352;2023-06-14T09:37:57;6.05;;;3.08;;
31043;SDS011;17710;52.520;13.352;2023-06-14T09:40:23;10.27;;;3.15;;
31043;SDS011;17710;52.520;13.352;2023-06-14T09:42:51;10.80;;;3.40;;
31043;SDS011;17710;52.520;13.352;2023-06-14T09:45:18;7.30;;;3.10;;
31043;SDS011;17710;52.520;13.352;2023-06-14T09:47:48;6.57;;;3.17;;
31043;SDS011;17710;52.520;13.352;2023-06-14T09:50:16;4.78;;;2.78;;
31043;SDS011;17710;52.520;13.352;2023-06-14T09:52:42;10.80;;;3.38;;
31043;SDS011;17710;52.520;13.352;2023-06-14T09:55:11;7.60;;;2.85;;
31043;SDS011;17710;52.520;13.352;2023-06-14T09:57:38;7.82;;;3.85;;
31043;SDS011;17710;52.520;13.352;2023-06-14T10:00:10;9.15;;;3.28;;
31043;SDS011;17710;52.520;13.352;2023-06-14T10:02:39;9.07;;;3.63;;
31043;SDS011;17710;52.520;13.352;2023-06-14T10:05:12;6.70;;;2.95;;
31043;SDS011;17710;52.520;13.352;2023-06-14T10:07:42;5.90;;;3.05;;
31043;SDS011;17710;52.520;13.352;2023-06-14T10:10:14;9.18;;;3.42;;
31043;SDS011;17710;52.520;13.352;2023-06-14T10:12:41;4.45;;;3.40;;
31043;SDS011;17710;52.520;13.352;2023-06-14T10:15:08;8.30;;;3.40;;
31043;SDS011;17710;52.520;13.352;2023-06-14T10:17:42;8.32;;;2.95;;
31043;SDS011;17710;52.520;13.352;2023-06-14T10:20:16;10.60;;;2.92;;
31043;SDS011;17710;52.520;13.352;2023-06-14T10:22:53;8.38;;;3.15;;
31043;SDS011;17710;52.520;13.352;2023-06-14T10:25:25;7.00;;;2.80;;
31043;SDS011;17710;52.520;13.352;2023-06-14T10:27:53;7.38;;;3.30;;
31043;SDS011;17710;52.520;13.352;2023-06-14T10:30:26;9.13;;;3.10;;
31043;SDS011;17710;52.520;13.352;2023-06-14T10:33:04;4.70;;;2.72;;
31043;SDS011;17710;52.520;13.352;2023-06-14T10:35:32;7.78;;;3.05;;
31043;SDS011;17710;52.520;13.352;2023-06-14T10:38:06;9.48;;;3.03;;
31043;SDS011;17710;52.520;13.352;2023-06-14T10:40:33;10.35;;;3.45;;
31043;SDS011;17710;52.520;13.352;2023-06-14T10:43:00;5.90;;;3.53;;
31043;SDS011;17710;52.520;13.352;2023-06-14T10:45:28;7.68;;;3.78;;
31043;SDS011;17710;52.520;13.352;2023-06-14T10:47:57;8.13;;;2.97;;
31043;SDS011;17710;52.520;13.352;2023-06-14T10:50:27;10.05;;;3.55;;
31043;SDS011;17710;52.520;13.352;2023-06-14T10:52:54;4.90;;;2.90;;
31043;SDS011;17710;52.520;13.352;2023-06-14T10:55:21;3.80;;;2.90;;
31043;SDS011;17710;52.520;13.352;2023-06-14T10:57:48;9.77;;;3.33;;
31043;SDS011;17710;52.520;13.352;2023-06-14T11:00:17;10.27;;;3.47;;
31043;SDS011;17710;52.520;13.352;2023-06-14T11:02:52;6.32;;;2.80;;
31043;SDS011;17710;52.520;13.352;2023-06-14T11:05:51;5.95;;;2.90;;
31043;SDS011;17710;52.520;13.352;2023-06-14T11:08:23;9.90;;;3.30;;
31043;SDS011;17710;52.520;13.352;2023-06-14T11:10:59;7.22;;;3.20;;
31043;SDS011;17710;52.520;13.352;2023-06-14T11:13:26;13.98;;;3.47;;
31043;SDS011;17710;52.520;13.352;2023-06-14T11:15:53;10.98;;;3.25;;
31043;SDS011;17710;52.520;13.352;2023-06-14T11:18:24;8.80;;;3.50;;
31043;SDS011;17710;52.520;13.352;2023-06-14T11:20:52;9.27;;;3.13;;
31043;SDS011;17710;52.520;13.352;2023-06-14T11:23:18;6.63;;;3.00;;
31043;SDS011;17710;52.520;13.352;2023-06-14T11:25:49;10.85;;;3.10;;
31043;SDS011;17710;52.520;13.352;2023-06-14T11:28:16;10.52;;;3.17;;
31043;SDS011;17710;52.520;13.352;2023-06-14T11:30:44;9.52;;;2.95;;
31043;SDS011;17710;52.520;13.352;2023-06-14T11:33:11;6.35;;;2.58;;
31043;SDS011;17710;52.520;13.352;2023-06-14T11:35:38;10.88;;;2.90;;
31043;SDS011;17710;52.520;13.352;2023-06-14T11:38:05;7.55;;;3.45;;
31043;SDS011;17710;52.520;13.352;2023-06-14T11:40:31;8.50;;;2.97;;
31043;SDS011;17710;52.520;13.352;2023-06-14T11:42:58;3.58;;;2.95;;
31043;SDS011;17710;52.520;13.352;2023-06-14T11:45:26;17.25;;;3.70;;
31043;SDS011;17710;52.520;13.352;2023-06-14T11:47:54;6.95;;;2.90;;
31043;SDS011;17710;52.520;13.352;2023-06-14T11:50:22;4.88;;;3.10;;
31043;SDS011;17710;52.520;13.352;2023-06-14T11:52:53;10.63;;;3.35;;
31043;SDS011;17710;52.520;13.352;2023-06-14T11:55:20;9.10;;;2.58;;
31043;SDS011;17710;52.520;13.352;2023-06-14T11:57:46;3.75;;;2.25;;
31043;SDS011;17710;52.520;13.352;2023-06-14T12:00:13;7.78;;;3.03;;
31043;SDS011;17710;52.520;13.352;2023-06-14T12:02:41;10.40;;;3.28;;
31043;SDS011;17710;52.520;13.352;2023-06-14T12:05:08;16.02;;;3.35;;
31043;SDS011;17710;52.520;13.352;2023-06-14T12:07:36;8.45;;;3.70;;
31043;SDS011;17710;52.520;13.352;2023-06-14T12:10:06;6.97;;;2.60;;
31043;SDS011;17710;52.520;13.352;2023-06-14T12:12:36;6.40;;;2.90;;
31043;SDS011;17710;52.520;13.352;2023-06-14T12:15:03;5.80;;;2.78;;
31043;SDS011;17710;52.520;13.352;2023-06-14T12:17:31;5.72;;;2.50;;
31043;SDS011;17710;52.520;13.352;2023-06-14T12:19:58;8.93;;;2.92;;
31043;SDS011;17710;52.520;13.352;2023-06-14T12:22:25;7.40;;;2.92;;
31043;SDS011;17710;52.520;13.352;2023-06-14T12:24:55;5.63;;;2.78;;
31043;SDS011;17710;52.520;13.352;2023-06-14T12:27:23;8.10;;;2.88;;
31043;SDS011;17710;52.520;13.352;2023-06-14T12:30:00;4.97;;;2.53;;
31043;SDS011;17710;52.520;13.352;2023-06-14T12:32:27;5.32;;;2.67;;
31043;SDS011;17710;52.520;13.352;2023-06-14T12:34:54;4.95;;;2.55;;
31043;SDS011;17710;52.520;13.352;2023-06-14T12:37:20;4.05;;;2.58;;
31043;SDS011;17710;52.520;13.352;2023-06-14T12:39:47;6.57;;;3.22;;
31043;SDS011;17710;52.520;13.352;2023-06-14T12:42:13;17.98;;;3.08;;
31043;SDS011;17710;52.520;13.352;2023-06-14T12:44:41;7.90;;;2.50;;
31043;SDS011;17710;52.520;13.352;2023-06-14T12:47:08;8.82;;;2.63;;
31043;SDS011;17710;52.520;13.352;2023-06-14T12:49:34;11.23;;;2.83;;
31043;SDS011;17710;52.520;13.352;2023-06-14T12:52:01;4.35;;;2.63;;
31043;SDS011;17710;52.520;13.352;2023-06-14T12:54:27;9.27;;;3.10;;
31043;SDS011;17710;52.520;13.352;2023-06-14T12:56:53;12.63;;;2.53;;
31043;SDS011;17710;52.520;13.352;2023-06-14T12:59:20;9.93;;;2.95;;
31043;SDS011;17710;52.520;13.352;2023-06-14T13:01:48;6.28;;;2.63;;
31043;SDS011;17710;52.520;13.352;2023-06-14T13:04:15;8.02;;;2.60;;
31043;SDS011;17710;52.520;13.352;2023-06-14T13:06:41;7.13;;;3.05;;
31043;SDS011;17710;52.520;13.352;2023-06-14T13:09:08;5.93;;;2.92;;
31043;SDS011;17710;52.520;13.352;2023-06-14T13:11:36;9.73;;;2.92;;
31043;SDS011;17710;52.520;13.352;2023-06-14T13:14:03;8.20;;;3.03;;
31043;SDS011;17710;52.520;13.352;2023-06-14T13:16:29;5.18;;;2.20;;
31043;SDS011;17710;52.520;13.352;2023-06-14T13:18:57;8.40;;;3.38;;
31043;SDS011;17710;52.520;13.352;2023-06-14T13:21:23;12.73;;;2.65;;
31043;SDS011;17710;52.520;13.352;2023-06-14T13:23:49;10.30;;;3.53;;
31043;SDS011;17710;52.520;13.352;2023-06-14T13:26:16;4.45;;;2.13;;
31043;SDS011;17710;52.520;13.352;2023-06-14T13:28:43;4.45;;;2.53;;
31043;SDS011;17710;52.520;13.352;2023-06-14T13:31:09;6.38;;;2.38;;
31043;SDS011;17710;52.520;13.352;2023-06-14T13:33:36;6.10;;;2.65;;
31043;SDS011;17710;52.520;13.352;2023-06-14T13:36:03;10.57;;;2.55;;
31043;SDS011;17710;52.520;13.352;2023-06-14T13:38:30;8.75;;;2.92;;
31043;SDS011;17710;52.520;13.352;2023-06-14T13:40:56;6.15;;;2.38;;
31043;SDS011;17710;52.520;13.352;2023-06-14T13:43:23;5.70;;;2.70;;
31043;SDS011;17710;52.520;13.352;2023-06-14T13:45:49;5.53;;;2.95;;
31043;SDS011;17710;52.520;13.352;2023-06-14T13:48:16;7.78;;;2.53;;
31043;SDS011;17710;52.520;13.352;2023-06-14T13:50:43;5.63;;;2.47;;
31043;SDS011;17710;52.520;13.352;2023-06-14T13:53:12;4.32;;;2.38;;
31043;SDS011;17710;52.520;13.352;2023-06-14T13:55:39;8.48;;;3.20;;
31043;SDS011;17710;52.520;13.352;2023-06-14T13:58:05;8.43;;;2.45;;
31043;SDS011;17710;52.520;13.352;2023-06-14T14:00:32;5.95;;;2.60;;
31043;SDS011;17710;52.520;13.352;2023-06-14T14:02:58;5.00;;;2.25;;
31043;SDS011;17710;52.520;13.352;2023-06-14T14:05:25;4.88;;;2.30;;
31043;SDS011;17710;52.520;13.352;2023-06-14T14:07:54;8.27;;;2.72;;
31043;SDS011;17710;52.520;13.352;2023-06-14T14:10:23;5.00;;;2.92;;
31043;SDS011;17710;52.520;13.352;2023-06-14T14:12:50;5.22;;;2.53;;
31043;SDS011;17710;52.520;13.352;2023-06-14T14:15:18;10.23;;;2.60;;
31043;SDS011;17710;52.520;13.352;2023-06-14T14:17:44;9.25;;;2.70;;
31043;SDS011;17710;52.520;13.352;2023-06-14T14:20:10;3.90;;;2.70;;
31043;SDS011;17710;52.520;13.352;2023-06-14T14:22:40;7.10;;;2.90;;
31043;SDS011;17710;52.520;13.352;2023-06-14T14:25:07;5.07;;;2.58;;
31043;SDS011;17710;52.520;13.352;2023-06-14T14:27:35;6.45;;;2.75;;
31043;SDS011;17710;52.520;13.352;2023-06-14T14:30:01;7.80;;;3.00;;
31043;SDS011;17710;52.520;13.352;2023-06-14T14:32:27;10.07;;;2.85;;